KNJK/NJK METAR and TAF weather

Enter ICAO airport designator
Station Type Date Time Source
KNJK METAR 2022/01/26 12:56 UTC NOAA

KNJK 261256Z AUTO 26007KT 10SM CLR 05/M07 A3015 RMK AO2 SLP224 T00501072 $


Station Type Date Time Source
KNJK Decoded METAR 2022/01/26 12:56 UTC NOAA

El Centro, Naval Air Facility, CA, United States (KNJK) 32-49-30N 115-39-38W -13M
Jan 26, 2022 - 07:56 AM EST / 2022.01.26 1256 UTC
Wind: from the W (260 degrees) at 8 MPH (7 KT):0
Visibility: 10 mile(s):0
Sky conditions: clear
Temperature: 41.0 F (5.0 C)
Dew Point: 19.0 F (-7.2 C)
Relative Humidity: 40%
Pressure (altimeter): 30.15 in. Hg (1020 hPa)
ob: KNJK 261256Z AUTO 26007KT 10SM CLR 05/M07 A3015 RMK AO2 SLP224 T00501072
cycle: 13

Station Type Date Time Source
KNJK TAF 2022/01/26 07:34 UTC NOAA

TAF KNJK 2607/2707 27007KT 9999 FEW250 QNH3007INS
BECMG 2617/2619 34007KT 9999 FEW250 QNH3004INS
BECMG 2701/2703 27007KT 9999 SKC QNH3007INS AUTOMATED SENSOR METWATCH 2607 TIL 2614 T06/2613Z T22/2623Z FS30178

Example: see airport list